Wetterdaten: Woche 11.04.16 - 17.04.16 (KW15)
Datum Zeit Auen-Temp. Temp gefhlt Luftfeuchte Luftdruck Regen Wind Richtung Sonnenschein Taupunkt Windben
11.04.2016 00:00 0,9 C 0,6 C 85 % 1010,4 hPa 0,0 mm 0,1 km/h (0 Bft) N 0,00 h -1,3 C 0,0 km/h (0 Bft)
11.04.2016 01:00 0,8 C 0,4 C 87 % 1010,3 hPa 0,0 mm 0,0 km/h (0 Bft) N 0,00 h -1,1 C 0,0 km/h (0 Bft)
11.04.2016 02:00 0,3 C -0,1 C 88 % 1010,3 hPa 0,0 mm 0,1 km/h (0 Bft) N 0,00 h -1,4 C 0,3 km/h (0 Bft)
11.04.2016 03:00 -0,0 C -0,3 C 89 % 1010,5 hPa 0,0 mm 0,1 km/h (0 Bft) N 0,00 h -1,7 C 0,3 km/h (0 Bft)
11.04.2016 04:00 0,4 C 0,2 C 89 % 1010,6 hPa 0,0 mm 0,8 km/h (0 Bft) S 0,00 h -1,2 C 1,2 km/h (1 Bft)
11.04.2016 05:00 -0,2 C -0,6 C 92 % 1010,6 hPa 0,0 mm 0,0 km/h (0 Bft) N 0,00 h -1,4 C 0,0 km/h (0 Bft)
11.04.2016 06:00 -0,7 C -1,1 C 92 % 1010,4 hPa 0,0 mm 0,2 km/h (0 Bft) N 0,00 h -1,9 C 0,3 km/h (0 Bft)
11.04.2016 07:00 -0,6 C 0,4 C 91 % 1010,6 hPa 0,0 mm 0,1 km/h (0 Bft) N 0,25 h -2,0 C 0,3 km/h (0 Bft)
11.04.2016 08:00 4,1 C 12,4 C 90 % 1010,5 hPa 0,0 mm 0,0 km/h (0 Bft) N 1,00 h 2,6 C 0,0 km/h (0 Bft)
11.04.2016 09:00 9,1 C 15,8 C 78 % 1011,7 hPa 0,0 mm 3,7 km/h (1 Bft) NO 1,00 h 5,5 C 6,2 km/h (2 Bft)
11.04.2016 10:00 11,6 C 18,2 C 70 % 1013,1 hPa 0,0 mm 4,5 km/h (1 Bft) N-NW 1,00 h 6,3 C 6,7 km/h (2 Bft)
11.04.2016 11:00 13,0 C 18,9 C 65 % 1014,0 hPa 0,0 mm 5,7 km/h (1 Bft) O-NO 1,00 h 6,6 C 7,6 km/h (2 Bft)
11.04.2016 12:00 14,0 C 19,0 C 61 % 1013,8 hPa 0,0 mm 7,7 km/h (2 Bft) O-NO 1,00 h 6,5 C 10,8 km/h (2 Bft)
11.04.2016 13:00 15,0 C 18,1 C 59 % 1013,5 hPa 0,0 mm 9,5 km/h (2 Bft) N-NO 0,08 h 7,0 C 12,8 km/h (3 Bft)
11.04.2016 14:00 15,4 C 19,9 C 56 % 1012,7 hPa 0,0 mm 7,8 km/h (2 Bft) N-NO 0,83 h 6,7 C 8,6 km/h (2 Bft)
11.04.2016 15:00 16,1 C 21,1 C 54 % 1011,8 hPa 0,0 mm 6,3 km/h (2 Bft) O-NO 1,00 h 6,8 C 7,6 km/h (2 Bft)
11.04.2016 16:00 15,7 C 19,6 C 54 % 1010,8 hPa 0,0 mm 9,5 km/h (2 Bft) O-NO 1,00 h 6,5 C 11,5 km/h (2 Bft)
11.04.2016 17:00 15,1 C 17,3 C 54 % 1010,5 hPa 0,0 mm 6,6 km/h (2 Bft) O-NO 0,17 h 5,8 C 7,0 km/h (2 Bft)
11.04.2016 18:00 14,2 C 15,1 C 57 % 1010,6 hPa 0,0 mm 3,4 km/h (1 Bft) NO 0,00 h 5,8 C 4,0 km/h (1 Bft)
11.04.2016 19:00 13,6 C 14,4 C 59 % 1010,5 hPa 0,0 mm 2,5 km/h (1 Bft) O-NO 0,00 h 5,8 C 2,3 km/h (1 Bft)
11.04.2016 20:00 10,3 C 10,1 C 66 % 1010,6 hPa 0,0 mm 1,8 km/h (1 Bft) S-SO 0,00 h 4,2 C 1,9 km/h (1 Bft)
11.04.2016 21:00 7,5 C 7,5 C 73 % 1010,8 hPa 0,0 mm 0,3 km/h (0 Bft) O-SO 0,00 h 3,0 C 0,7 km/h (0 Bft)
11.04.2016 22:00 6,8 C 6,7 C 80 % 1011,1 hPa 0,0 mm 0,2 km/h (0 Bft) N 0,00 h 3,6 C 0,3 km/h (0 Bft)
11.04.2016 23:00 5,6 C 5,2 C 84 % 1011,1 hPa 0,0 mm 0,0 km/h (0 Bft) N 0,00 h 3,0 C 0,0 km/h (0 Bft)
12.04.2016 00:00 4,7 C 4,4 C 86 % 1011,0 hPa 0,0 mm 0,0 km/h (0 Bft) N 0,00 h 2,5 C 0,0 km/h (0 Bft)
12.04.2016 01:00 4,2 C 3,9 C 87 % 1010,9 hPa 0,0 mm 0,0 km/h (0 Bft) N 0,00 h 2,2 C 0,0 km/h (0 Bft)
12.04.2016 02:00 3,7 C 3,4 C 88 % 1010,4 hPa 0,0 mm 0,0 km/h (0 Bft) N 0,00 h 1,9 C 0,0 km/h (0 Bft)
12.04.2016 03:00 3,2 C 3,0 C 89 % 1010,0 hPa 0,0 mm 0,0 km/h (0 Bft) N 0,00 h 1,5 C 0,0 km/h (0 Bft)
12.04.2016 04:00 3,7 C 3,8 C 90 % 1010,1 hPa 0,0 mm 1,2 km/h (1 Bft) S 0,00 h 2,2 C 2,4 km/h (1 Bft)
12.04.2016 05:00 4,2 C 4,1 C 91 % 1010,2 hPa 0,0 mm 0,0 km/h (0 Bft) N 0,00 h 2,8 C 0,0 km/h (0 Bft)
12.04.2016 06:00 4,3 C 4,2 C 89 % 1010,2 hPa 0,0 mm 0,3 km/h (0 Bft) S-SO 0,00 h 2,7 C 0,7 km/h (0 Bft)
12.04.2016 07:00 5,7 C 5,8 C 87 % 1010,8 hPa 0,0 mm 4,9 km/h (1 Bft) W 0,00 h 3,7 C 9,0 km/h (2 Bft)
12.04.2016 08:00 7,5 C 7,1 C 85 % 1012,3 hPa 1,4 mm 11,5 km/h (2 Bft) W-SW 0,00 h 5,1 C 16,2 km/h (3 Bft)
12.04.2016 09:00 7,6 C 7,1 C 85 % 1013,5 hPa 0,0 mm 10,8 km/h (2 Bft) W 0,00 h 5,2 C 13,0 km/h (3 Bft)
12.04.2016 10:00 7,7 C 7,7 C 83 % 1014,0 hPa 0,0 mm 5,3 km/h (1 Bft) W-SW 0,00 h 5,0 C 8,3 km/h (2 Bft)
12.04.2016 11:00 9,1 C 11,0 C 80 % 1014,1 hPa 0,0 mm 5,3 km/h (1 Bft) W-SW 0,00 h 5,8 C 5,2 km/h (1 Bft)
12.04.2016 12:00 11,2 C 16,0 C 71 % 1014,5 hPa 0,0 mm 4,3 km/h (1 Bft) O-SO 0,83 h 6,2 C 5,2 km/h (1 Bft)
12.04.2016 13:00 12,3 C 16,3 C 65 % 1014,5 hPa 0,0 mm 5,2 km/h (1 Bft) O-NO 0,92 h 5,9 C 7,1 km/h (2 Bft)
12.04.2016 14:00 13,0 C 16,5 C 62 % 1013,7 hPa 0,0 mm 4,7 km/h (1 Bft) N-NO 0,42 h 5,9 C 5,3 km/h (1 Bft)
12.04.2016 15:00 14,8 C 19,7 C 58 % 1012,9 hPa 0,0 mm 6,5 km/h (2 Bft) O-SO 1,00 h 6,5 C 8,4 km/h (2 Bft)
12.04.2016 16:00 14,7 C 18,7 C 56 % 1012,1 hPa 0,0 mm 10,3 km/h (2 Bft) O-NO 0,92 h 6,0 C 13,2 km/h (3 Bft)
12.04.2016 17:00 14,5 C 16,3 C 54 % 1011,3 hPa 0,0 mm 10,5 km/h (2 Bft) N-NO 0,00 h 5,4 C 12,6 km/h (3 Bft)
12.04.2016 18:00 13,9 C 14,9 C 54 % 1010,9 hPa 0,0 mm 9,3 km/h (2 Bft) N-NO 0,00 h 4,9 C 10,9 km/h (2 Bft)
12.04.2016 19:00 12,3 C 13,2 C 57 % 1010,2 hPa 0,0 mm 2,4 km/h (1 Bft) NO 0,00 h 4,0 C 2,7 km/h (1 Bft)
12.04.2016 20:00 9,3 C 9,0 C 63 % 1010,1 hPa 0,0 mm 0,1 km/h (0 Bft) N 0,00 h 2,6 C 0,0 km/h (0 Bft)
12.04.2016 21:00 6,7 C 6,3 C 71 % 1009,9 hPa 0,0 mm 0,1 km/h (0 Bft) N 0,00 h 1,7 C 0,3 km/h (0 Bft)
12.04.2016 22:00 5,2 C 5,0 C 76 % 1009,6 hPa 0,0 mm 0,0 km/h (0 Bft) N 0,00 h 1,4 C 0,0 km/h (0 Bft)
12.04.2016 23:00 4,8 C 4,5 C 81 % 1009,5 hPa 0,0 mm 0,0 km/h (0 Bft) N 0,00 h 1,8 C 0,0 km/h (0 Bft)
13.04.2016 00:00 4,4 C 4,1 C 83 % 1009,4 hPa 0,0 mm 0,0 km/h (0 Bft) N 0,00 h 1,7 C 0,0 km/h (0 Bft)
13.04.2016 01:00 5,1 C 4,7 C 84 % 1009,6 hPa 0,0 mm 2,9 km/h (1 Bft) S-SO 0,00 h 2,5 C 6,2 km/h (2 Bft)
13.04.2016 02:00 6,4 C 6,1 C 84 % 1010,6 hPa 0,0 mm 7,0 km/h (2 Bft) W 0,00 h 3,9 C 8,8 km/h (2 Bft)
13.04.2016 03:00 7,2 C 7,1 C 81 % 1010,9 hPa 0,0 mm 6,9 km/h (2 Bft) S 0,00 h 4,2 C 8,3 km/h (2 Bft)
13.04.2016 04:00 7,1 C 7,0 C 80 % 1010,8 hPa 0,0 mm 0,5 km/h (0 Bft) O-SO 0,00 h 3,8 C 0,3 km/h (0 Bft)
13.04.2016 05:00 6,8 C 6,8 C 81 % 1010,2 hPa 0,0 mm 0,0 km/h (0 Bft) N 0,00 h 3,8 C 0,0 km/h (0 Bft)
13.04.2016 06:00 6,3 C 6,3 C 82 % 1009,6 hPa 0,0 mm 0,0 km/h (0 Bft) N 0,00 h 3,5 C 0,0 km/h (0 Bft)
13.04.2016 07:00 6,4 C 7,0 C 82 % 1009,4 hPa 0,0 mm 0,0 km/h (0 Bft) W 0,08 h 3,6 C 0,0 km/h (0 Bft)
13.04.2016 08:00 9,7 C 14,4 C 77 % 1009,2 hPa 0,0 mm 1,1 km/h (1 Bft) O-NO 1,00 h 5,9 C 2,2 km/h (1 Bft)
13.04.2016 09:00 12,1 C 18,8 C 67 % 1009,6 hPa 0,0 mm 3,8 km/h (1 Bft) O-NO 1,00 h 6,1 C 4,9 km/h (1 Bft)
13.04.2016 10:00 13,2 C 18,6 C 61 % 1010,6 hPa 0,0 mm 6,9 km/h (2 Bft) NO 1,00 h 5,9 C 6,7 km/h (2 Bft)
13.04.2016 11:00 14,3 C 18,7 C 57 % 1010,6 hPa 0,0 mm 6,7 km/h (2 Bft) O-NO 1,00 h 5,9 C 9,1 km/h (2 Bft)
13.04.2016 12:00 15,1 C 18,9 C 56 % 1010,3 hPa 0,0 mm 12,3 km/h (3 Bft) O-NO 0,50 h 6,3 C 16,0 km/h (3 Bft)
13.04.2016 13:00 15,8 C 18,9 C 55 % 1009,6 hPa 0,0 mm 11,4 km/h (2 Bft) O-NO 0,33 h 6,8 C 14,4 km/h (3 Bft)
13.04.2016 14:00 14,5 C 15,8 C 56 % 1008,4 hPa 0,0 mm 8,4 km/h (2 Bft) NW 0,00 h 5,9 C 10,9 km/h (2 Bft)
13.04.2016 15:00 8,9 C 8,7 C 78 % 1008,5 hPa 6,2 mm 14,9 km/h (3 Bft) W 0,00 h 5,3 C 20,9 km/h (4 Bft)
13.04.2016 16:00 8,0 C 7,5 C 85 % 1009,1 hPa 0,7 mm 16,3 km/h (3 Bft) W-SW 0,00 h 5,6 C 24,2 km/h (4 Bft)
13.04.2016 17:00 7,1 C 6,7 C 82 % 1009,2 hPa 2,7 mm 12,7 km/h (3 Bft) SW 0,00 h 4,2 C 16,0 km/h (3 Bft)
13.04.2016 18:00 7,2 C 7,4 C 82 % 1008,6 hPa 0,0 mm 0,4 km/h (0 Bft) SO 0,00 h 4,4 C 0,3 km/h (0 Bft)
13.04.2016 19:00 3,9 C 7,3 C 82 % 1008,9 hPa 0,0 mm 0,8 km/h (0 Bft) SO 0,00 h 1,1 C 1,0 km/h (0 Bft)
13.04.2016 20:00 0,0 C 6,5 C 88 % 1009,2 hPa 0,0 mm 0,3 km/h (0 Bft) N 0,00 h -1,8 C 1,2 km/h (1 Bft)
13.04.2016 21:00 0,0 C 6,3 C 88 % 1009,6 hPa 0,0 mm 0,2 km/h (0 Bft) SO 0,00 h -1,7 C 0,3 km/h (0 Bft)
13.04.2016 22:00 0,0 C 5,8 C 89 % 1009,8 hPa 0,0 mm 1,0 km/h (0 Bft) S-SO 0,00 h -1,6 C 2,0 km/h (1 Bft)
13.04.2016 23:00 0,0 C 5,5 C 91 % 1009,5 hPa 0,0 mm 1,9 km/h (1 Bft) SO 0,00 h -1,4 C 1,9 km/h (1 Bft)
14.04.2016 00:00 0,0 C 6,0 C 90 % 1009,4 hPa 0,7 mm 4,8 km/h (1 Bft) SW 0,00 h -1,5 C 6,6 km/h (2 Bft)
14.04.2016 01:00 0,0 C 6,1 C 88 % 1009,6 hPa 0,0 mm 7,1 km/h (2 Bft) W-SW 0,00 h -1,8 C 10,3 km/h (2 Bft)
14.04.2016 02:00 0,0 C 6,1 C 85 % 1009,8 hPa 0,0 mm 7,8 km/h (2 Bft) W-SW 0,00 h -2,3 C 10,8 km/h (2 Bft)
14.04.2016 03:00 0,0 C 6,1 C 83 % 1009,9 hPa 0,0 mm 7,2 km/h (2 Bft) W-SW 0,00 h -2,5 C 8,6 km/h (2 Bft)
14.04.2016 04:00 0,0 C 5,6 C 85 % 1010,2 hPa 0,0 mm 8,2 km/h (2 Bft) W-SW 0,00 h -2,2 C 11,9 km/h (2 Bft)
14.04.2016 05:00 4,8 C 4,8 C 88 % 1010,5 hPa 0,7 mm 9,2 km/h (2 Bft) W-SW 0,00 h 3,0 C 13,5 km/h (3 Bft)
14.04.2016 06:00 4,7 C 4,2 C 88 % 1010,9 hPa 4,8 mm 7,9 km/h (2 Bft) S 0,00 h 2,9 C 12,2 km/h (2 Bft)
14.04.2016 07:00 4,4 C 3,8 C 89 % 1011,6 hPa 2,7 mm 10,5 km/h (2 Bft) W-SW 0,00 h 2,7 C 12,6 km/h (3 Bft)
14.04.2016 08:00 4,1 C 3,7 C 87 % 1012,2 hPa 2,1 mm 9,5 km/h (2 Bft) W 0,00 h 2,2 C 10,5 km/h (2 Bft)
14.04.2016 09:00 6,0 C 7,1 C 84 % 1012,9 hPa 0,0 mm 8,2 km/h (2 Bft) W-SW 0,00 h 3,5 C 12,2 km/h (2 Bft)
14.04.2016 10:00 7,0 C 7,9 C 80 % 1013,8 hPa 0,0 mm 9,1 km/h (2 Bft) W 0,00 h 3,8 C 11,3 km/h (2 Bft)
14.04.2016 11:00 7,7 C 9,1 C 79 % 1014,1 hPa 0,7 mm 9,9 km/h (2 Bft) W-SW 0,00 h 4,3 C 10,8 km/h (2 Bft)
14.04.2016 12:00 9,1 C 12,4 C 77 % 1014,4 hPa 0,0 mm 7,4 km/h (2 Bft) W 0,58 h 5,2 C 10,5 km/h (2 Bft)
14.04.2016 13:00 8,4 C 8,5 C 76 % 1014,5 hPa 0,0 mm 9,5 km/h (2 Bft) W 0,00 h 4,5 C 13,3 km/h (3 Bft)
14.04.2016 14:00 9,3 C 12,5 C 75 % 1014,7 hPa 0,0 mm 12,2 km/h (2 Bft) W-SW 0,33 h 5,1 C 17,1 km/h (3 Bft)
14.04.2016 15:00 8,9 C 11,3 C 73 % 1014,6 hPa 0,0 mm 7,8 km/h (2 Bft) W-SW 0,00 h 4,3 C 10,7 km/h (2 Bft)
14.04.2016 16:00 10,5 C 13,4 C 68 % 1014,1 hPa 0,0 mm 6,9 km/h (2 Bft) SW 0,33 h 4,8 C 10,0 km/h (2 Bft)
14.04.2016 17:00 10,2 C 11,3 C 67 % 1013,9 hPa 0,0 mm 7,1 km/h (2 Bft) NW 0,00 h 4,3 C 8,8 km/h (2 Bft)
14.04.2016 18:00 10,1 C 11,8 C 67 % 1013,7 hPa 0,0 mm 6,8 km/h (2 Bft) NO 0,08 h 4,3 C 6,9 km/h (2 Bft)
14.04.2016 19:00 8,7 C 9,7 C 71 % 1013,8 hPa 0,0 mm 0,4 km/h (0 Bft) NO 0,00 h 3,8 C 0,8 km/h (0 Bft)
14.04.2016 20:00 6,0 C 5,7 C 81 % 1013,6 hPa 0,0 mm 0,7 km/h (0 Bft) O-SO 0,00 h 3,0 C 1,6 km/h (1 Bft)
14.04.2016 21:00 3,1 C 3,7 C 85 % 1013,4 hPa 0,0 mm 0,0 km/h (0 Bft) N 0,00 h 0,7 C 0,0 km/h (0 Bft)
14.04.2016 22:00 0,0 C 3,0 C 86 % 1012,8 hPa 0,0 mm 0,0 km/h (0 Bft) N 0,00 h -2,1 C 0,4 km/h (0 Bft)
14.04.2016 23:00 0,0 C 2,9 C 87 % 1012,5 hPa 0,0 mm 0,0 km/h (0 Bft) N 0,00 h -1,8 C 0,0 km/h (0 Bft)
15.04.2016 00:00 2,6 C 3,0 C 87 % 1011,8 hPa 0,0 mm 0,7 km/h (0 Bft) O-NO 0,00 h 0,7 C 1,1 km/h (1 Bft)
15.04.2016 01:00 3,0 C 2,5 C 89 % 1011,3 hPa 0,0 mm 0,2 km/h (0 Bft) N 0,00 h 1,3 C 0,0 km/h (0 Bft)
15.04.2016 02:00 2,6 C 2,2 C 89 % 1011,1 hPa 0,0 mm 0,5 km/h (0 Bft) O-NO 0,00 h 0,9 C 0,6 km/h (0 Bft)
15.04.2016 03:00 2,2 C 2,9 C 88 % 1010,7 hPa 0,0 mm 0,3 km/h (0 Bft) NO 0,00 h 0,5 C 0,2 km/h (0 Bft)
15.04.2016 04:00 0,0 C 4,4 C 84 % 1010,2 hPa 0,0 mm 0,6 km/h (0 Bft) NO 0,00 h -2,4 C 1,3 km/h (1 Bft)
15.04.2016 05:00 0,0 C 5,0 C 79 % 1009,6 hPa 0,0 mm 0,2 km/h (0 Bft) N 0,00 h -3,2 C 1,8 km/h (1 Bft)
15.04.2016 06:00 0,0 C 4,9 C 78 % 1009,2 hPa 0,0 mm 0,1 km/h (0 Bft) N 0,00 h -3,4 C 0,2 km/h (0 Bft)
15.04.2016 07:00 0,0 C 6,2 C 74 % 1008,9 hPa 0,0 mm 0,3 km/h (0 Bft) N 0,00 h -4,1 C 0,9 km/h (0 Bft)
15.04.2016 08:00 0,0 C 8,9 C 69 % 1008,6 hPa 0,0 mm 0,2 km/h (0 Bft) N 0,00 h -4,9 C 0,4 km/h (0 Bft)
15.04.2016 09:00 0,0 C 9,3 C 69 % 1009,1 hPa 0,0 mm 0,9 km/h (0 Bft) W-SW 0,00 h -5,0 C 1,8 km/h (1 Bft)
15.04.2016 10:00 0,0 C 13,0 C 58 % 1009,9 hPa 0,0 mm 7,5 km/h (2 Bft) W-NW 0,08 h -7,3 C 11,1 km/h (2 Bft)
15.04.2016 11:00 0,0 C 10,3 C 62 % 1010,9 hPa 0,0 mm 13,3 km/h (3 Bft) W 0,00 h -6,3 C 21,6 km/h (4 Bft)
15.04.2016 12:00 0,0 C 11,4 C 64 % 1011,0 hPa 0,0 mm 13,8 km/h (3 Bft) W 0,00 h -5,9 C 16,7 km/h (3 Bft)
15.04.2016 13:00 0,0 C 10,8 C 66 % 1011,2 hPa 0,0 mm 14,0 km/h (3 Bft) W-NW 0,00 h -5,5 C 15,2 km/h (3 Bft)
15.04.2016 14:00 0,0 C 10,8 C 68 % 1011,0 hPa 0,0 mm 7,7 km/h (2 Bft) W-SW 0,00 h -5,2 C 10,3 km/h (2 Bft)
15.04.2016 15:00 0,0 C 11,9 C 65 % 1010,9 hPa 0,0 mm 5,3 km/h (1 Bft) W-SW 0,00 h -5,7 C 6,0 km/h (2 Bft)
15.04.2016 16:00 0,0 C 11,0 C 67 % 1010,6 hPa 0,0 mm 1,2 km/h (1 Bft) W-SW 0,00 h -5,3 C 0,9 km/h (0 Bft)
15.04.2016 17:00 0,0 C 12,1 C 67 % 1010,2 hPa 0,0 mm 0,8 km/h (0 Bft) N-NO 0,00 h -5,3 C 1,1 km/h (1 Bft)
15.04.2016 18:00 0,0 C 12,4 C 66 % 1009,7 hPa 0,0 mm 1,2 km/h (1 Bft) S 0,08 h -5,7 C 1,1 km/h (1 Bft)
15.04.2016 19:00 0,0 C 9,9 C 72 % 1009,5 hPa 0,0 mm 0,2 km/h (0 Bft) N 0,00 h -4,5 C 0,3 km/h (0 Bft)
15.04.2016 20:00 0,0 C 8,4 C 78 % 1009,1 hPa 0,0 mm 0,4 km/h (0 Bft) O 0,00 h -3,3 C 1,0 km/h (0 Bft)
15.04.2016 21:00 0,0 C 7,9 C 82 % 1009,1 hPa 0,0 mm 0,3 km/h (0 Bft) N 0,00 h -2,7 C 0,0 km/h (0 Bft)
15.04.2016 22:00 3,1 C 7,5 C 85 % 1009,0 hPa 0,0 mm 0,4 km/h (0 Bft) O-SO 0,00 h 0,8 C 0,5 km/h (0 Bft)
15.04.2016 23:00 7,3 C 7,0 C 86 % 1009,0 hPa 0,0 mm 0,6 km/h (0 Bft) O-SO 0,00 h 5,0 C 1,3 km/h (1 Bft)
16.04.2016 00:00 6,0 C 6,8 C 86 % 1008,8 hPa 0,0 mm 1,2 km/h (1 Bft) S 0,00 h 3,8 C 2,1 km/h (1 Bft)
16.04.2016 01:00 0,0 C 6,2 C 86 % 1008,5 hPa 0,0 mm 0,8 km/h (0 Bft) O-SO 0,00 h -2,1 C 1,1 km/h (0 Bft)
16.04.2016 02:00 0,0 C 5,5 C 87 % 1007,8 hPa 0,0 mm 0,1 km/h (0 Bft) N 0,00 h -1,9 C 0,3 km/h (0 Bft)
16.04.2016 03:00 0,0 C 3,7 C 88 % 1007,2 hPa 0,0 mm 0,0 km/h (0 Bft) N 0,00 h -1,7 C 0,6 km/h (0 Bft)
16.04.2016 04:00 0,0 C 3,0 C 89 % 1006,9 hPa 0,0 mm 0,3 km/h (0 Bft) W-SW 0,00 h -1,6 C 0,0 km/h (0 Bft)
16.04.2016 05:00 0,0 C 2,4 C 92 % 1006,5 hPa 0,0 mm 0,1 km/h (0 Bft) N 0,00 h -1,2 C 0,3 km/h (0 Bft)
16.04.2016 06:00 0,0 C 2,1 C 92 % 1006,1 hPa 0,0 mm 0,1 km/h (0 Bft) N 0,00 h -1,2 C 1,0 km/h (0 Bft)
16.04.2016 07:00 0,0 C 5,0 C 92 % 1005,9 hPa 0,0 mm 0,4 km/h (0 Bft) S-SO 0,25 h -1,1 C 0,0 km/h (0 Bft)
16.04.2016 08:00 2,5 C 14,8 C 85 % 1005,4 hPa 0,0 mm 1,0 km/h (0 Bft) W-NW 1,00 h 0,2 C 2,3 km/h (1 Bft)
16.04.2016 09:00 11,6 C 16,4 C 74 % 1006,8 hPa 0,0 mm 10,0 km/h (2 Bft) W-SW 1,00 h 7,2 C 14,1 km/h (3 Bft)
16.04.2016 10:00 12,9 C 17,1 C 67 % 1009,0 hPa 0,0 mm 13,2 km/h (3 Bft) W 0,92 h 7,0 C 17,9 km/h (3 Bft)
16.04.2016 11:00 13,2 C 15,4 C 64 % 1009,4 hPa 0,0 mm 17,9 km/h (3 Bft) W 0,33 h 6,5 C 24,4 km/h (4 Bft)
16.04.2016 12:00 11,7 C 12,1 C 69 % 1009,4 hPa 0,0 mm 13,7 km/h (3 Bft) W-SW 0,00 h 6,3 C 16,1 km/h (3 Bft)
16.04.2016 13:00 11,8 C 13,4 C 74 % 1009,2 hPa 0,0 mm 8,6 km/h (2 Bft) W 0,00 h 7,3 C 9,1 km/h (2 Bft)
16.04.2016 14:00 14,5 C 18,6 C 68 % 1008,6 hPa 0,0 mm 6,5 km/h (2 Bft) N-NO 0,33 h 8,7 C 9,3 km/h (2 Bft)
16.04.2016 15:00 16,3 C 20,5 C 60 % 1008,2 hPa 0,0 mm 8,0 km/h (2 Bft) W-NW 0,93 h 8,6 C 10,1 km/h (2 Bft)
16.04.2016 16:00 16,2 C 19,4 C 59 % 1008,3 hPa 0,0 mm 8,5 km/h (2 Bft) NW 0,58 h 8,3 C 9,6 km/h (2 Bft)
16.04.2016 17:00 16,5 C 19,3 C 58 % 1008,4 hPa 0,0 mm 8,0 km/h (2 Bft) NW 0,50 h 8,2 C 8,0 km/h (2 Bft)
16.04.2016 18:00 14,7 C 15,2 C 59 % 1008,0 hPa 0,0 mm 6,2 km/h (2 Bft) NW 0,00 h 6,9 C 7,7 km/h (2 Bft)
16.04.2016 19:00 13,5 C 14,5 C 60 % 1007,9 hPa 0,0 mm 2,2 km/h (1 Bft) NW 0,00 h 6,0 C 2,9 km/h (1 Bft)
16.04.2016 20:00 10,7 C 10,8 C 68 % 1007,9 hPa 0,0 mm 1,0 km/h (0 Bft) SO 0,00 h 5,1 C 1,4 km/h (1 Bft)
16.04.2016 21:00 8,3 C 8,1 C 77 % 1007,6 hPa 0,0 mm 0,5 km/h (0 Bft) SO 0,00 h 4,5 C 0,5 km/h (0 Bft)
16.04.2016 22:00 7,4 C 7,2 C 82 % 1007,0 hPa 0,0 mm 0,1 km/h (0 Bft) N 0,00 h 4,5 C 0,0 km/h (0 Bft)
16.04.2016 23:00 7,1 C 7,0 C 84 % 1006,1 hPa 0,0 mm 0,4 km/h (0 Bft) N 0,00 h 4,6 C 0,7 km/h (0 Bft)
17.04.2016 00:00 6,2 C 6,0 C 87 % 1005,1 hPa 0,0 mm 0,9 km/h (0 Bft) W-SW 0,00 h 4,1 C 2,6 km/h (1 Bft)
17.04.2016 01:00 6,1 C 6,0 C 88 % 1004,4 hPa 0,0 mm 2,6 km/h (1 Bft) S-SO 0,00 h 4,2 C 2,8 km/h (1 Bft)
17.04.2016 02:00 5,9 C 5,8 C 89 % 1003,9 hPa 0,0 mm 2,3 km/h (1 Bft) W-SW 0,00 h 4,2 C 2,7 km/h (1 Bft)
17.04.2016 03:00 7,7 C 7,2 C 90 % 1004,1 hPa 0,0 mm 8,1 km/h (2 Bft) W 0,00 h 6,1 C 15,9 km/h (3 Bft)
17.04.2016 04:00 8,7 C 8,0 C 84 % 1005,6 hPa 0,0 mm 20,7 km/h (4 Bft) W 0,00 h 6,1 C 32,9 km/h (5 Bft)
17.04.2016 05:00 8,5 C 8,2 C 84 % 1007,1 hPa 0,0 mm 12,4 km/h (3 Bft) W-NW 0,00 h 6,0 C 15,5 km/h (3 Bft)
17.04.2016 06:00 8,0 C 7,8 C 84 % 1007,6 hPa 0,0 mm 3,3 km/h (1 Bft) S 0,00 h 5,4 C 4,2 km/h (1 Bft)
17.04.2016 07:00 8,1 C 8,0 C 84 % 1007,8 hPa 0,0 mm 5,2 km/h (1 Bft) S 0,00 h 5,6 C 7,3 km/h (2 Bft)
17.04.2016 08:00 9,0 C 8,9 C 78 % 1007,8 hPa 0,0 mm 7,8 km/h (2 Bft) S 0,00 h 5,3 C 9,8 km/h (2 Bft)
17.04.2016 09:00 10,1 C 10,9 C 75 % 1007,6 hPa 0,0 mm 3,5 km/h (1 Bft) W-SW 0,00 h 5,8 C 5,3 km/h (1 Bft)
17.04.2016 10:00 10,7 C 11,2 C 74 % 1008,2 hPa 0,0 mm 2,4 km/h (1 Bft) SW 0,00 h 6,1 C 3,6 km/h (1 Bft)
17.04.2016 11:00 10,1 C 10,0 C 79 % 1009,2 hPa 0,7 mm 1,1 km/h (1 Bft) W-NW 0,00 h 6,5 C 1,3 km/h (1 Bft)
17.04.2016 12:00 10,1 C 10,1 C 78 % 1009,8 hPa 0,0 mm 5,1 km/h (1 Bft) W-SW 0,00 h 6,5 C 7,0 km/h (2 Bft)
17.04.2016 13:00 9,9 C 10,0 C 79 % 1010,1 hPa 0,7 mm 5,8 km/h (2 Bft) W-SW 0,00 h 6,4 C 7,2 km/h (2 Bft)
17.04.2016 14:00 9,2 C 9,0 C 80 % 1010,8 hPa 0,7 mm 8,9 km/h (2 Bft) W-SW 0,00 h 6,0 C 11,6 km/h (2 Bft)
17.04.2016 15:00 8,9 C 9,0 C 81 % 1010,8 hPa 0,0 mm 7,4 km/h (2 Bft) W-SW 0,00 h 5,8 C 10,4 km/h (2 Bft)
17.04.2016 16:00 8,6 C 8,5 C 82 % 1010,8 hPa 0,7 mm 3,6 km/h (1 Bft) W 0,00 h 5,6 C 3,8 km/h (1 Bft)
17.04.2016 17:00 8,1 C 7,9 C 84 % 1011,2 hPa 4,1 mm 4,4 km/h (1 Bft) W 0,00 h 5,6 C 4,6 km/h (1 Bft)
17.04.2016 18:00 6,8 C 6,6 C 86 % 1012,2 hPa 2,7 mm 5,9 km/h (2 Bft) W-SW 0,00 h 4,7 C 7,8 km/h (2 Bft)
17.04.2016 19:00 5,9 C 5,7 C 87 % 1012,3 hPa 0,7 mm 0,2 km/h (0 Bft) N 0,00 h 4,0 C 0,0 km/h (0 Bft)
17.04.2016 20:00 5,5 C 5,4 C 89 % 1012,8 hPa 1,4 mm 0,0 km/h (0 Bft) N 0,00 h 3,9 C 0,0 km/h (0 Bft)
17.04.2016 21:00 5,4 C 5,3 C 90 % 1013,8 hPa 2,1 mm 0,1 km/h (0 Bft) N 0,00 h 3,9 C 0,3 km/h (0 Bft)
17.04.2016 22:00 5,1 C 5,0 C 90 % 1014,8 hPa 2,1 mm 2,1 km/h (1 Bft) SW 0,00 h 3,6 C 2,6 km/h (1 Bft)
17.04.2016 23:00 4,7 C 4,5 C 90 % 1015,2 hPa 2,1 mm 0,3 km/h (0 Bft) N 0,00 h 3,2 C 0,6 km/h (0 Bft)
Min-Datum _ 11.04.16 11.04.16 13.04.16 17.04.16 - 17.04.16 - - 15.04.16 17.04.16
_ Min-Zeit 07:05 07:05 13:45 03:00 - 23:05 - - 10:30 23:00
Minimum _ -1,2 C -1,4 C 53 % 1003,8 hPa - 0,0 km/h (0 Bft) - - -8,2 C 0,0 km/h (0 Bft)
Max-Datum _ 16.04.16 16.04.16 16.04.16 17.04.16 13.04.16 17.04.16 - 16.04.16 16.04.16 17.04.16
_ Max-Zeit 17:15 15:10 07:00 23:30 15:00 04:20 - 17:00 14:50 04:35
Maximum _ 16,8 C 22,5 C 93 % 1015,6 hPa 6,2 mm 24,7 km/h
W (4 Bft)
- 0,08 h 9,2 C 58,4 km/h
W (7 Bft)
Durchschnitt _ 6,5 C 9,0 C 77 % 1010,3 hPa #40,5 mm 4,4 km/h (1 Bft) W-SW #24:41 h 2,6 C 5,8 km/h (2 Bft)